createdAt,value
2018-06-10T00:01:36.630Z,96.89
2018-06-10T00:04:05.871Z,94.89
2018-06-10T00:06:35.086Z,95.16
2018-06-10T00:09:06.280Z,95.67
2018-06-10T00:11:35.538Z,95.63
2018-06-10T00:14:04.847Z,95.27
2018-06-10T00:16:35.046Z,95.90
2018-06-10T00:19:04.635Z,93.06
2018-06-10T00:21:33.847Z,93.42
2018-06-10T00:24:03.068Z,95.56
2018-06-10T00:26:32.299Z,95.01
2018-06-10T00:29:06.711Z,96.06
2018-06-10T00:31:35.907Z,94.14
2018-06-10T00:34:05.484Z,93.97
2018-06-10T00:36:34.677Z,93.34
2018-06-10T00:39:04.064Z,92.47
2018-06-10T00:41:33.312Z,92.59
2018-06-10T00:44:02.650Z,93.22
2018-06-10T00:46:31.859Z,94.92
2018-06-10T00:49:01.090Z,94.82
2018-06-10T00:51:30.347Z,95.89
2018-06-10T00:53:59.571Z,96.38
2018-06-10T00:56:46.055Z,97.23
2018-06-10T00:59:15.270Z,97.36
2018-06-10T01:01:45.711Z,96.48
2018-06-10T01:04:14.970Z,94.67
2018-06-10T01:06:44.426Z,93.38
2018-06-10T01:09:13.672Z,93.37
2018-06-10T01:11:42.870Z,94.57
2018-06-10T01:14:12.083Z,94.35
2018-06-10T01:16:41.314Z,94.99
2018-06-10T01:21:53.883Z,95.51
2018-06-10T01:24:23.111Z,96.53
2018-06-10T01:26:52.338Z,96.97
2018-06-10T01:29:21.536Z,97.70
2018-06-10T01:31:50.736Z,98.32
2018-06-10T01:34:19.953Z,98.68
2018-06-10T01:36:49.175Z,98.82
2018-06-10T01:39:18.390Z,99.37
2018-06-10T01:41:47.651Z,99.66
2018-06-10T01:44:19.716Z,97.67
2018-06-10T01:46:48.995Z,97.14
2018-06-10T01:49:18.190Z,97.52
2018-06-10T01:51:47.402Z,96.83
2018-06-10T01:54:16.619Z,96.50
2018-06-10T01:56:45.840Z,95.55
2018-06-10T01:59:15.055Z,94.77
2018-06-10T02:01:44.266Z,95.45
2018-06-10T02:04:13.495Z,95.11
2018-06-10T02:06:42.719Z,95.04
2018-06-10T02:14:18.676Z,95.20
2018-06-10T02:16:47.895Z,97.35
2018-06-10T02:19:17.111Z,97.62
2018-06-10T02:21:46.310Z,97.80
2018-06-10T02:24:15.538Z,98.61
2018-06-10T02:26:44.745Z,99.14
2018-06-10T02:29:13.980Z,98.99
2018-06-10T02:31:43.217Z,99.22
2018-06-10T02:34:12.424Z,99.80
2018-06-10T02:36:41.640Z,100.00
2018-06-10T02:39:10.922Z,99.81
2018-06-10T02:41:40.159Z,100.00
2018-06-10T02:44:09.394Z,100.00
2018-06-10T02:46:38.622Z,99.95
2018-06-10T02:49:07.840Z,99.97
2018-06-10T02:51:37.054Z,100.00
2018-06-10T02:54:06.527Z,98.03
2018-06-10T02:56:35.738Z,97.48
2018-06-10T02:59:04.980Z,97.95
2018-06-10T03:01:34.194Z,99.09
2018-06-10T03:04:03.420Z,99.13
2018-06-10T03:06:32.653Z,99.33
2018-06-10T03:09:01.878Z,98.60
2018-06-10T03:11:31.088Z,96.91
2018-06-10T03:14:00.303Z,97.08
2018-06-10T03:16:29.507Z,97.36
2018-06-10T03:18:58.728Z,97.55
2018-06-10T03:21:27.950Z,98.12
2018-06-10T03:23:57.159Z,98.89
2018-06-10T03:26:26.390Z,98.99
2018-06-10T03:28:55.592Z,99.68
2018-06-10T03:31:24.826Z,99.70
2018-06-10T03:33:54.082Z,99.95
2018-06-10T03:36:23.316Z,100.00
2018-06-10T03:38:52.604Z,99.93
2018-06-10T03:41:21.815Z,98.47
2018-06-10T03:43:51.037Z,96.89
2018-06-10T03:46:20.271Z,97.29
2018-06-10T03:48:49.477Z,98.28
2018-06-10T03:51:18.699Z,98.65
2018-06-10T03:53:47.911Z,97.40
2018-06-10T03:56:17.123Z,97.42
2018-06-10T03:58:53.065Z,96.91
2018-06-10T04:01:22.298Z,96.29
2018-06-10T04:03:51.493Z,96.47
2018-06-10T04:06:20.717Z,96.51
2018-06-10T04:08:49.923Z,95.70
2018-06-10T04:11:19.134Z,93.15
2018-06-10T04:13:48.363Z,92.74
2018-06-10T04:16:17.568Z,92.55
2018-06-10T04:18:46.775Z,91.91
2018-06-10T04:21:15.977Z,91.59
2018-06-10T04:23:45.207Z,90.64
2018-06-10T04:26:14.422Z,90.62
2018-06-10T04:28:43.622Z,90.73
2018-06-10T04:31:12.840Z,90.13
2018-06-10T04:33:42.043Z,87.70
2018-06-10T04:36:41.927Z,87.37
2018-06-10T04:39:11.116Z,87.10
2018-06-10T04:41:41.448Z,87.59
2018-06-10T04:44:10.650Z,86.84
2018-06-10T04:46:39.846Z,82.70
2018-06-10T04:49:09.926Z,80.27
2018-06-10T04:51:39.137Z,81.63
2018-06-10T04:54:08.438Z,78.43
2018-06-10T04:56:37.651Z,67.62
2018-06-10T04:59:06.867Z,65.25
2018-06-10T05:01:36.085Z,58.32
2018-06-10T05:04:05.322Z,57.75
2018-06-10T05:06:34.527Z,55.22
2018-06-10T05:09:03.864Z,57.01
2018-06-10T05:11:33.079Z,51.50
2018-06-10T05:14:02.306Z,48.87
2018-06-10T05:16:31.599Z,44.79
2018-06-10T05:19:00.895Z,45.50
2018-06-10T05:21:30.120Z,45.98
2018-06-10T05:23:59.346Z,43.35
2018-06-10T05:26:28.560Z,40.94
2018-06-10T05:28:57.791Z,40.91
2018-06-10T05:31:27.054Z,43.92
2018-06-10T05:33:56.292Z,40.08
2018-06-10T05:36:25.542Z,36.95
2018-06-10T05:38:54.882Z,33.70
2018-06-10T05:41:24.414Z,38.97
2018-06-10T05:43:53.639Z,40.24
2018-06-10T05:46:22.869Z,40.70
2018-06-10T05:48:52.071Z,43.77
2018-06-10T05:51:21.595Z,42.52
2018-06-10T05:53:50.837Z,38.41
2018-06-10T05:56:20.128Z,38.17
2018-06-10T05:58:49.339Z,37.61
2018-06-10T06:01:18.551Z,34.97
2018-06-10T06:03:47.768Z,36.19
2018-06-10T06:06:16.981Z,35.78
2018-06-10T06:08:46.219Z,34.54
2018-06-10T06:11:15.430Z,32.16
2018-06-10T06:13:44.637Z,32.59
2018-06-10T06:16:13.963Z,33.27
2018-06-10T06:18:43.186Z,32.51
2018-06-10T06:21:12.403Z,33.91
2018-06-10T06:23:41.623Z,34.35
2018-06-10T06:26:10.830Z,34.41
2018-06-10T06:28:40.591Z,34.28
2018-06-10T06:31:09.878Z,31.60
2018-06-10T06:33:39.188Z,33.92
2018-06-10T06:36:08.478Z,33.46
2018-06-10T06:38:37.681Z,36.19
2018-06-10T06:41:06.897Z,33.58
2018-06-10T06:43:36.102Z,31.58
2018-06-10T06:46:05.309Z,31.60
2018-06-10T06:48:34.518Z,34.89
2018-06-10T06:51:03.747Z,33.73
2018-06-10T06:53:32.951Z,34.41
2018-06-10T06:56:02.167Z,30.75
2018-06-10T06:58:31.535Z,29.50
2018-06-10T07:01:00.765Z,28.50
2018-06-10T07:03:29.952Z,30.69
2018-06-10T07:05:59.195Z,29.45
2018-06-10T07:08:28.431Z,33.29
2018-06-10T07:10:57.714Z,30.35
2018-06-10T07:13:27.035Z,33.41
2018-06-10T07:15:56.103Z,32.04
2018-06-10T07:18:25.321Z,31.00
2018-06-10T07:20:54.547Z,30.14
2018-06-10T07:23:23.831Z,27.37
2018-06-10T07:25:53.084Z,28.64
2018-06-10T07:28:22.317Z,30.40
2018-06-10T07:30:51.561Z,30.54
2018-06-10T07:33:20.817Z,31.10
2018-06-10T07:35:50.006Z,29.62
2018-06-10T07:38:19.252Z,30.56
2018-06-10T07:40:48.501Z,28.78
2018-06-10T07:43:17.746Z,31.60
2018-06-10T07:45:46.970Z,33.47
2018-06-10T07:48:16.257Z,32.55
2018-06-10T07:50:45.424Z,32.38
2018-06-10T07:53:14.651Z,29.07
2018-06-10T07:55:43.856Z,29.53
2018-06-10T07:58:13.083Z,30.01
2018-06-10T08:00:42.306Z,33.93
2018-06-10T08:03:11.506Z,30.43
2018-06-10T08:05:40.740Z,28.20
2018-06-10T08:08:09.933Z,31.07
2018-06-10T08:10:39.190Z,29.86
2018-06-10T08:13:08.391Z,29.37
2018-06-10T08:15:37.602Z,31.65
2018-06-10T08:18:06.846Z,30.88
2018-06-10T08:20:36.091Z,28.56
2018-06-10T08:23:05.731Z,29.04
2018-06-10T08:25:34.968Z,28.95
2018-06-10T08:28:04.178Z,28.90
2018-06-10T08:30:33.366Z,27.51
2018-06-10T08:33:02.595Z,28.57
2018-06-10T08:35:31.996Z,30.02
2018-06-10T08:38:01.222Z,28.23
2018-06-10T08:40:30.443Z,30.43
2018-06-10T08:42:59.675Z,28.72
2018-06-10T08:45:28.912Z,30.14
2018-06-10T08:47:58.127Z,29.69
2018-06-10T08:50:27.374Z,29.46
2018-06-10T08:52:56.587Z,24.92
2018-06-10T08:55:25.554Z,29.89
2018-06-10T08:57:54.783Z,28.27
2018-06-10T09:00:23.998Z,31.14
2018-06-10T09:02:53.253Z,29.24
2018-06-10T09:05:22.412Z,26.68
2018-06-10T09:07:51.617Z,26.11
2018-06-10T09:10:20.826Z,28.52
2018-06-10T09:12:50.026Z,28.74
2018-06-10T09:15:19.353Z,27.33
2018-06-10T09:17:48.559Z,28.92
2018-06-10T09:20:17.775Z,25.80
2018-06-10T09:22:46.971Z,25.67
2018-06-10T09:25:16.165Z,25.13
2018-06-10T09:27:45.395Z,27.19
2018-06-10T09:30:14.619Z,27.68
2018-06-10T09:32:43.818Z,26.20
2018-06-10T09:35:13.036Z,26.12
2018-06-10T09:37:42.222Z,23.07
2018-06-10T09:40:11.441Z,26.13
2018-06-10T09:42:40.631Z,26.24
2018-06-10T09:45:09.847Z,25.09
2018-06-10T09:47:39.067Z,29.16
2018-06-10T09:50:08.287Z,31.09
2018-06-10T09:52:37.595Z,29.66
2018-06-10T09:55:06.902Z,30.60
2018-06-10T09:57:36.042Z,34.82
2018-06-10T10:00:05.342Z,34.25
2018-06-10T10:14:18.028Z,31.67
2018-06-10T10:16:47.362Z,40.83
2018-06-10T10:19:16.595Z,42.13
2018-06-10T10:21:45.840Z,43.19
2018-06-10T10:24:15.079Z,44.45
2018-06-10T10:26:44.332Z,39.64
2018-06-10T10:29:13.543Z,42.05
2018-06-10T10:31:42.752Z,36.15
2018-06-10T10:34:11.967Z,32.85
2018-06-10T10:36:41.182Z,32.11
2018-06-10T10:39:11.629Z,27.85
2018-06-10T10:41:40.843Z,29.41
2018-06-10T10:44:10.050Z,32.07
2018-06-10T10:46:39.298Z,32.91
2018-06-10T10:49:08.498Z,35.21
2018-06-10T10:51:37.730Z,34.59
2018-06-10T10:54:07.016Z,30.64
2018-06-10T10:56:36.238Z,31.87
2018-06-10T10:59:05.448Z,25.98
2018-06-10T11:01:34.662Z,29.87
2018-06-10T11:04:03.894Z,34.20
2018-06-10T11:06:33.112Z,35.39
2018-06-10T11:09:02.334Z,39.15
2018-06-10T11:11:31.550Z,34.45
2018-06-10T11:14:00.767Z,27.98
2018-06-10T11:16:29.963Z,27.20
2018-06-10T11:18:59.207Z,25.37
2018-06-10T11:21:28.434Z,26.80
2018-06-10T11:23:57.644Z,22.84
2018-06-10T11:26:27.914Z,25.22
2018-06-10T11:28:57.127Z,25.82
2018-06-10T11:31:26.362Z,31.70
2018-06-10T11:33:55.551Z,33.21
2018-06-10T11:36:24.771Z,26.31
2018-06-10T11:38:53.986Z,22.91
2018-06-10T11:41:23.243Z,29.25
2018-06-10T11:43:52.451Z,33.91
2018-06-10T11:46:21.683Z,37.69
2018-06-10T11:48:51.022Z,32.70
2018-06-10T11:51:20.234Z,33.54
2018-06-10T11:53:49.460Z,35.82
2018-06-10T11:56:18.692Z,38.53
2018-06-10T11:58:47.890Z,38.67
2018-06-10T12:01:17.119Z,36.56
2018-06-10T12:03:46.330Z,37.42
2018-06-10T12:06:15.561Z,38.67
2018-06-10T12:08:44.790Z,34.33
2018-06-10T12:11:14.004Z,33.54
2018-06-10T12:13:43.264Z,29.03
2018-06-10T12:16:12.440Z,29.26
2018-06-10T12:18:41.667Z,29.21
2018-06-10T12:21:10.861Z,34.47
2018-06-10T12:23:40.077Z,39.14
2018-06-10T12:26:10.076Z,40.31
2018-06-10T12:28:39.402Z,38.01
2018-06-10T12:31:08.598Z,38.60
2018-06-10T12:33:37.840Z,36.61
2018-06-10T12:36:07.114Z,36.66
2018-06-10T12:38:36.363Z,40.33
2018-06-10T12:41:05.578Z,38.05
2018-06-10T12:43:34.832Z,36.32
2018-06-10T12:46:04.062Z,38.27
2018-06-10T12:48:33.286Z,39.59
2018-06-10T12:51:02.257Z,52.14
2018-06-10T12:53:31.478Z,68.75
2018-06-10T12:56:00.750Z,73.39
2018-06-10T12:58:30.050Z,76.32
2018-06-10T13:00:59.307Z,74.40
2018-06-10T13:03:28.513Z,73.83
2018-06-10T13:05:57.739Z,71.60
2018-06-10T13:08:26.990Z,67.01
2018-06-10T13:10:56.250Z,65.68
2018-06-10T13:13:25.494Z,63.67
2018-06-10T13:15:54.770Z,65.48
2018-06-10T13:18:24.087Z,65.79
2018-06-10T13:20:53.286Z,67.48
2018-06-10T13:23:22.522Z,63.14
2018-06-10T13:25:51.734Z,64.36
2018-06-10T13:28:20.986Z,63.79
2018-06-10T13:30:50.190Z,55.84
2018-06-10T13:33:19.410Z,58.71
2018-06-10T13:35:48.616Z,57.54
2018-06-10T13:38:17.828Z,60.15
2018-06-10T13:40:47.030Z,59.36
2018-06-10T13:43:16.256Z,59.54
2018-06-10T13:45:45.515Z,59.28
2018-06-10T13:48:14.723Z,55.76
2018-06-10T13:50:43.926Z,57.64
2018-06-10T13:53:13.157Z,56.19
2018-06-10T13:55:42.650Z,59.38
2018-06-10T13:58:11.878Z,54.91
2018-06-10T14:00:41.702Z,55.13
2018-06-10T14:03:10.929Z,53.59
2018-06-10T14:05:40.164Z,54.47
2018-06-10T14:08:09.391Z,56.81
2018-06-10T14:10:38.602Z,54.76
2018-06-10T14:13:07.834Z,48.41
2018-06-10T14:15:37.153Z,51.03
2018-06-10T14:18:06.452Z,50.89
2018-06-10T14:20:35.755Z,47.68
2018-06-10T14:23:05.039Z,46.26
2018-06-10T14:25:34.255Z,47.94
2018-06-10T14:28:03.571Z,44.62
2018-06-10T14:30:32.795Z,47.03
2018-06-10T14:33:02.032Z,50.67
2018-06-10T14:35:31.290Z,47.81
2018-06-10T14:38:00.507Z,46.95
2018-06-10T14:40:29.714Z,48.84
2018-06-10T14:42:58.975Z,43.63
2018-06-10T14:45:28.217Z,44.58
2018-06-10T14:47:57.417Z,43.51
2018-06-10T14:50:26.645Z,43.62
2018-06-10T14:52:55.838Z,43.51
2018-06-10T14:55:25.045Z,46.76
2018-06-10T14:57:54.245Z,47.29
2018-06-10T15:00:23.513Z,42.50
2018-06-10T15:02:52.695Z,43.94
2018-06-10T15:05:21.923Z,44.03
2018-06-10T15:07:51.146Z,44.67
2018-06-10T15:10:20.382Z,44.16
2018-06-10T15:12:49.612Z,44.36
2018-06-10T15:15:18.826Z,46.73
2018-06-10T15:17:48.103Z,46.94
2018-06-10T15:20:17.427Z,47.40
2018-06-10T15:22:46.671Z,46.66
2018-06-10T15:25:15.936Z,44.56
2018-06-10T15:27:45.134Z,44.28
2018-06-10T15:30:14.350Z,45.83
2018-06-10T15:32:43.538Z,45.53
2018-06-10T15:35:12.762Z,44.89
2018-06-10T15:37:41.941Z,44.20
2018-06-10T15:40:11.163Z,44.06
2018-06-10T15:42:40.358Z,43.62
2018-06-10T15:45:09.564Z,43.91
2018-06-10T15:47:38.792Z,45.37
2018-06-10T15:50:08.038Z,46.68
2018-06-10T15:52:37.225Z,46.94
2018-06-10T15:55:06.448Z,44.68
2018-06-10T15:57:35.651Z,43.93
2018-06-10T16:00:04.883Z,44.11
2018-06-10T16:02:34.094Z,46.02
2018-06-10T16:05:03.421Z,46.85
2018-06-10T16:07:32.664Z,46.02
2018-06-10T16:10:01.895Z,46.64
2018-06-10T16:12:31.546Z,45.98
2018-06-10T16:15:00.815Z,45.98
2018-06-10T16:17:30.015Z,45.26
2018-06-10T16:19:59.274Z,48.12
2018-06-10T16:22:28.531Z,47.16
2018-06-10T16:24:57.747Z,45.35
2018-06-10T16:27:27.915Z,45.16
2018-06-10T16:29:57.143Z,46.78
2018-06-10T16:32:26.415Z,46.07
2018-06-10T16:34:55.614Z,45.72
2018-06-10T16:37:24.924Z,45.69
2018-06-10T16:39:54.197Z,49.35
2018-06-10T16:42:23.441Z,47.33
2018-06-10T16:44:52.734Z,46.41
2018-06-10T16:47:21.971Z,46.19
2018-06-10T16:49:51.188Z,46.06
2018-06-10T16:52:20.389Z,46.35
2018-06-10T16:54:49.612Z,46.48
2018-06-10T16:57:19.082Z,46.16
2018-06-10T16:59:48.315Z,46.30
2018-06-10T17:02:17.551Z,46.21
2018-06-10T17:04:46.771Z,48.19
2018-06-10T17:07:16.026Z,47.59
2018-06-10T17:09:45.238Z,48.67
2018-06-10T17:12:14.466Z,48.41
2018-06-10T17:14:43.687Z,48.80
2018-06-10T17:17:12.974Z,50.22
2018-06-10T17:19:42.352Z,51.34
2018-06-10T17:22:11.574Z,52.11
2018-06-10T17:24:40.771Z,51.83
2018-06-10T17:27:10.095Z,52.33
2018-06-10T17:29:39.376Z,51.71
2018-06-10T17:32:08.691Z,51.92
2018-06-10T17:34:38.015Z,52.52
2018-06-10T17:37:07.300Z,52.95
2018-06-10T17:39:36.523Z,52.16
2018-06-10T17:42:05.822Z,51.54
2018-06-10T17:44:35.047Z,51.18
2018-06-10T17:47:04.522Z,53.60
2018-06-10T17:49:33.727Z,53.14
2018-06-10T17:52:02.955Z,54.70
2018-06-10T17:54:32.214Z,52.71
2018-06-10T17:57:01.447Z,52.95
2018-06-10T17:59:30.642Z,54.48
2018-06-10T18:01:59.834Z,54.26
2018-06-10T18:04:29.038Z,54.31
2018-06-10T18:06:59.351Z,54.46
2018-06-10T18:09:28.742Z,55.58
2018-06-10T18:11:57.942Z,54.94
2018-06-10T18:14:27.175Z,55.16
2018-06-10T18:16:56.391Z,55.94
2018-06-10T18:19:25.588Z,56.32
2018-06-10T18:21:54.815Z,57.25
2018-06-10T18:24:24.014Z,58.15
2018-06-10T18:26:53.222Z,57.24
2018-06-10T18:29:22.414Z,59.06
2018-06-10T18:31:51.665Z,60.07
2018-06-10T18:34:20.840Z,60.32
2018-06-10T18:36:50.057Z,60.11
2018-06-10T18:39:19.246Z,60.38
2018-06-10T18:41:48.455Z,61.27
2018-06-10T18:44:17.679Z,61.98
2018-06-10T18:46:46.902Z,61.93
2018-06-10T18:49:16.118Z,63.56
2018-06-10T18:51:45.382Z,63.82
2018-06-10T18:54:14.628Z,65.67
2018-06-10T18:56:43.854Z,66.94
2018-06-10T18:59:13.114Z,68.87
2018-06-10T19:01:42.322Z,69.71
2018-06-10T19:04:11.599Z,70.54
2018-06-10T19:06:40.825Z,71.86
2018-06-10T19:09:10.347Z,70.42
2018-06-10T19:11:39.575Z,65.97
2018-06-10T19:14:08.794Z,66.63
2018-06-10T19:16:38.000Z,71.16
2018-06-10T19:19:07.218Z,73.00
2018-06-10T19:21:36.451Z,74.46
2018-06-10T19:24:05.676Z,76.83
2018-06-10T19:26:34.960Z,74.69
2018-06-10T19:29:04.246Z,75.39
2018-06-10T19:31:33.545Z,77.17
2018-06-10T19:34:02.770Z,75.04
2018-06-10T19:36:31.982Z,75.72
2018-06-10T19:39:01.264Z,74.71
2018-06-10T19:41:30.561Z,75.07
2018-06-10T19:43:59.777Z,75.65
2018-06-10T19:46:29.031Z,79.19
2018-06-10T19:48:58.251Z,83.00
2018-06-10T19:51:27.981Z,83.16
2018-06-10T19:53:57.204Z,85.17
2018-06-10T19:56:26.486Z,85.06
2018-06-10T19:58:55.717Z,84.33
2018-06-10T20:01:24.908Z,84.88
2018-06-10T20:03:54.377Z,86.15
2018-06-10T20:06:23.574Z,85.54
2018-06-10T20:08:52.779Z,86.65
2018-06-10T20:11:22.102Z,86.10
2018-06-10T20:13:51.314Z,86.30
2018-06-10T20:16:20.539Z,86.57
2018-06-10T20:18:49.740Z,86.64
2018-06-10T20:21:18.922Z,86.76
2018-06-10T20:23:48.140Z,87.41
2018-06-10T20:26:17.351Z,84.75
2018-06-10T20:28:46.554Z,83.91
2018-06-10T20:31:15.779Z,86.87
2018-06-10T20:33:44.995Z,88.40
2018-06-10T20:36:14.222Z,87.78
2018-06-10T20:38:43.418Z,88.28
2018-06-10T20:41:12.625Z,87.92
2018-06-10T20:43:41.856Z,84.74
2018-06-10T20:46:11.066Z,84.66
2018-06-10T20:48:40.302Z,84.45
2018-06-10T20:51:09.500Z,86.86
2018-06-10T20:53:38.755Z,88.47
2018-06-10T20:56:07.979Z,88.69
2018-06-10T20:58:37.203Z,85.56
2018-06-10T21:01:06.423Z,85.71
2018-06-10T21:03:35.659Z,88.06
2018-06-10T21:06:04.992Z,89.90
2018-06-10T21:08:34.194Z,90.55
2018-06-10T21:11:03.408Z,89.21
2018-06-10T21:13:32.620Z,90.28
2018-06-10T21:16:01.859Z,90.47
2018-06-10T21:18:31.075Z,90.03
2018-06-10T21:21:00.402Z,90.42
2018-06-10T21:23:29.617Z,91.14
2018-06-10T21:25:58.851Z,91.37
2018-06-10T21:28:28.062Z,90.32
2018-06-10T21:30:57.300Z,89.18
2018-06-10T21:33:26.518Z,90.22
2018-06-10T21:35:55.766Z,91.67
2018-06-10T21:38:24.973Z,91.77
2018-06-10T21:40:54.188Z,91.67
2018-06-10T21:43:23.427Z,89.17
2018-06-10T21:45:52.667Z,89.58
2018-06-10T21:48:21.904Z,91.42
2018-06-10T21:50:51.134Z,91.30
2018-06-10T21:53:20.380Z,92.07
2018-06-10T21:55:49.818Z,92.40
2018-06-10T21:58:19.116Z,91.42
2018-06-10T22:00:48.300Z,91.97
2018-06-10T22:03:17.546Z,92.38
2018-06-10T22:05:46.738Z,93.47
2018-06-10T22:08:15.959Z,93.24
2018-06-10T22:10:45.182Z,93.92
2018-06-10T22:13:14.400Z,94.19
2018-06-10T22:15:43.633Z,93.41
2018-06-10T22:18:12.838Z,93.65
2018-06-10T22:20:42.073Z,92.12
2018-06-10T22:23:11.286Z,90.64
2018-06-10T22:25:40.546Z,91.72
2018-06-10T22:28:09.765Z,91.62
2018-06-10T22:30:39.067Z,91.77
2018-06-10T22:33:08.228Z,93.85
2018-06-10T22:35:37.453Z,93.99
2018-06-10T22:38:06.657Z,94.38
2018-06-10T22:40:35.894Z,91.44
2018-06-10T22:43:05.111Z,93.22
2018-06-10T22:45:34.452Z,94.57
2018-06-10T22:48:03.655Z,94.25
2018-06-10T22:50:32.894Z,94.41
2018-06-10T22:53:19.034Z,94.75
2018-06-10T22:55:48.259Z,95.17
2018-06-10T22:58:17.491Z,94.75
2018-06-10T23:00:46.770Z,94.83
2018-06-10T23:03:15.995Z,94.91
2018-06-10T23:05:45.226Z,94.00
2018-06-10T23:08:14.563Z,91.77
2018-06-10T23:10:43.778Z,92.41
2018-06-10T23:13:12.986Z,94.07
2018-06-10T23:15:42.206Z,94.67
2018-06-10T23:18:11.414Z,95.58
2018-06-10T23:20:40.639Z,95.32
2018-06-10T23:23:09.841Z,95.69
2018-06-10T23:25:39.074Z,95.57
2018-06-10T23:28:08.291Z,95.43
2018-06-10T23:31:07.782Z,95.27
2018-06-10T23:33:36.986Z,93.57
2018-06-10T23:36:06.194Z,94.50
2018-06-10T23:38:35.411Z,94.35
2018-06-10T23:41:04.633Z,93.09
2018-06-10T23:43:33.842Z,91.39
2018-06-10T23:46:03.136Z,92.86
2018-06-10T23:48:32.111Z,92.50
2018-06-10T23:51:01.347Z,94.00
2018-06-10T23:53:30.306Z,95.04
2018-06-10T23:55:59.786Z,95.56
2018-06-10T23:58:29.006Z,95.90
